Time;durP1;ratioP1;P1;durP2;ratioP2;P2;SDS_P1;SDS_P2;PMS_P1;PMS_P2;Temp;Humidity;BMP_temperature;BMP_pressure;BME280_temperature;BME280_humidity;BME280_pressure;Samples;Min_cycle;Max_cycle;Signal;HPM_P1;HPM_P2
2022/05/20 00:00:25;;;;;;;35.70;23.45;;;;;;;19.41;57.91;102267.81;4993384;28;20027;-66
2022/05/20 00:02:50;;;;;;;37.15;24.60;;;;;;;19.59;57.45;102266.72;4993094;28;20490;-66
2022/05/20 00:05:16;;;;;;;38.88;26.08;;;;;;;19.34;58.27;102275.34;4993144;28;20421;-66
2022/05/20 00:07:41;;;;;;;51.08;26.90;;;;;;;19.33;58.48;102273.69;4993453;28;20105;-66
2022/05/20 00:10:12;;;;;;;41.17;26.90;;;;;;;18.70;60.74;102282.09;4992884;28;20042;-66
2022/05/20 00:12:38;;;;;;;47.05;26.58;;;;;;;19.12;59.23;102282.59;4992759;28;20038;-66
2022/05/20 00:15:09;;;;;;;41.90;27.10;;;;;;;19.45;58.04;102284.50;4992896;28;20417;-66
2022/05/20 00:17:35;;;;;;;;;;;;;;;19.22;58.65;102278.13;4993175;28;20061;-66
2022/05/20 00:20:02;;;;;;;40.22;28.40;;;;;;;19.75;57.14;102274.88;4992632;28;20338;-67
2022/05/20 00:22:27;;;;;;;41.53;27.63;;;;;;;19.96;55.86;102274.09;4993062;28;20034;-66
2022/05/20 00:27:37;;;;;;;41.50;29.73;;;;;;;19.38;58.15;102264.78;4992590;28;20150;-67
2022/05/20 00:30:04;;;;;;;38.03;26.90;;;;;;;19.16;58.93;102270.91;4992474;28;20049;-67
2022/05/20 00:32:30;;;;;;;45.22;28.08;;;;;;;18.93;59.16;102267.50;4992584;28;20388;-67
2022/05/20 00:34:55;;;;;;;43.85;28.55;;;;;;;18.92;59.69;102261.25;4992472;28;20031;-67
2022/05/20 00:37:21;;;;;;;47.05;30.17;;;;;;;19.23;58.35;102266.16;4992701;28;20062;-67
2022/05/20 00:39:46;;;;;;;42.10;29.65;;;;;;;19.25;58.07;102264.00;4992294;28;20034;-66
2022/05/20 00:42:17;;;;;;;41.38;28.80;;;;;;;19.16;58.30;102267.41;4991981;28;20038;-67
2022/05/20 00:44:43;;;;;;;41.83;28.75;;;;;;;19.16;58.34;102265.47;4992195;28;20606;-66
2022/05/20 00:47:11;;;;;;;41.05;27.95;;;;;;;19.05;58.31;102262.81;4992246;28;20161;-68
2022/05/20 00:49:38;;;;;;;42.42;30.23;;;;;;;18.68;59.96;102273.34;4992965;28;20520;-67
2022/05/20 00:52:07;;;;;;;45.38;30.40;;;;;;;18.98;58.97;102267.63;4992012;28;20045;-66
2022/05/20 00:54:39;;;;;;;48.10;32.38;;;;;;;18.71;59.42;102267.41;4992054;28;20125;-66
2022/05/20 00:57:23;;;;;;;50.15;35.25;;;;;;;18.53;60.71;102272.22;4992137;28;20041;-66
2022/05/20 00:59:53;;;;;;;51.55;33.75;;;;;;;18.03;62.14;102271.97;4992362;28;20521;-67
2022/05/20 01:02:20;;;;;;;;;;;;;;;18.49;60.70;102274.63;4991365;28;20478;-65
2022/05/20 01:04:47;;;;;;;58.10;33.83;;;;;;;18.55;60.79;102270.94;4992396;28;19914;-67
2022/05/20 01:07:15;;;;;;;55.88;35.10;;;;;;;18.20;61.83;102279.16;4992084;28;20046;-66
2022/05/20 01:09:41;;;;;;;51.67;35.58;;;;;;;17.90;62.83;102278.53;4991890;28;20034;-66
2022/05/20 01:12:07;;;;;;;64.47;39.47;;;;;;;18.56;60.76;102282.63;4991711;28;20042;-66
2022/05/20 01:14:33;;;;;;;57.08;38.92;;;;;;;18.76;59.95;102278.41;4991742;28;20039;-67
2022/05/20 01:16:58;;;;;;;59.08;38.25;;;;;;;18.66;60.17;102267.31;4991782;28;20073;-66
2022/05/20 01:19:38;;;;;;;65.95;41.70;;;;;;;19.02;59.64;102272.34;4992266;28;20034;-65
2022/05/20 01:22:06;;;;;;;64.57;40.20;;;;;;;19.06;58.97;102272.66;4991089;28;20041;-66
2022/05/20 01:24:33;;;;;;;58.53;40.15;;;;;;;19.08;59.02;102273.25;4991116;28;20049;-65
2022/05/20 01:26:58;;;;;;;61.80;40.92;;;;;;;19.28;58.36;102265.41;4991668;28;20034;-67
2022/05/20 01:29:25;;;;;;;59.90;39.67;;;;;;;19.23;58.69;102268.03;4991528;28;20501;-66
2022/05/20 01:31:50;;;;;;;58.92;39.20;;;;;;;19.32;57.77;102265.75;4992105;28;20030;-66
2022/05/20 01:34:15;;;;;;;58.70;37.20;;;;;;;19.40;57.02;102265.34;4991672;28;20038;-66
2022/05/20 01:36:41;;;;;;;47.58;35.80;;;;;;;19.37;57.91;102263.13;4991531;28;20070;-67
2022/05/20 01:39:07;;;;;;;55.33;36.20;;;;;;;19.35;57.83;102259.81;4990665;28;20045;-67
2022/05/20 01:41:50;;;;;;;47.28;35.05;;;;;;;19.12;57.72;102266.22;4991674;28;20041;-66
2022/05/20 01:44:24;;;;;;;55.75;34.55;;;;;;;19.10;57.67;102266.47;4991309;28;20117;-67
2022/05/20 01:47:26;;;;;;;50.78;33.85;;;;;;;19.10;57.54;102268.38;4991782;28;20038;-67
2022/05/20 01:50:05;;;;;;;47.33;33.95;;;;;;;19.09;58.10;102264.00;4969047;28;20565;-67
2022/05/20 01:52:37;;;;;;;58.47;35.50;;;;;;;19.22;57.23;102258.22;4969486;28;20391;-68
2022/05/20 01:55:08;;;;;;;51.63;34.65;;;;;;;19.12;57.10;102249.88;4986959;28;20042;-66
2022/05/20 01:57:43;;;;;;;53.38;35.20;;;;;;;19.21;57.18;102246.50;4988565;28;20435;-66
2022/05/20 02:00:13;;;;;;;49.00;32.33;;;;;;;19.21;56.95;102262.00;4988310;28;20042;-65
2022/05/20 02:03:21;;;;;;;41.53;31.92;;;;;;;19.20;56.73;102254.94;4988439;28;20042;-66
2022/05/20 02:05:53;;;;;;;57.97;35.42;;;;;;;19.27;57.01;102248.22;4969066;28;20118;-65
2022/05/20 02:08:38;;;;;;;53.33;36.55;;;;;;;19.18;57.21;102259.78;4968878;28;20041;-66
2022/05/20 02:11:18;;;;;;;49.42;33.50;;;;;;;19.28;56.66;102252.59;4968970;28;20669;-66
2022/05/20 02:13:52;;;;;;;51.97;32.38;;;;;;;19.22;56.45;102245.41;4969361;28;20035;-66
2022/05/20 02:16:22;;;;;;;45.97;32.10;;;;;;;18.87;57.16;102241.28;4969184;28;20058;-66
2022/05/20 02:18:53;;;;;;;47.45;32.75;;;;;;;18.68;58.38;102243.38;4968892;28;20065;-67
2022/05/20 02:21:20;;;;;;;;;;;;;;;18.91;56.92;102242.41;4969487;28;20053;-66
2022/05/20 02:23:49;;;;;;;42.63;30.17;;;;;;;19.07;56.72;102231.53;4961268;28;20362;-66
2022/05/20 02:26:21;;;;;;;53.47;33.35;;;;;;;19.03;56.75;102227.66;4939300;29;20035;-65
2022/05/20 02:28:54;;;;;;;47.38;31.95;;;;;;;19.08;56.58;102233.22;4930946;29;20044;-67
2022/05/20 02:31:35;;;;;;;44.88;30.30;;;;;;;19.11;56.30;102231.88;4930631;29;20084;-66
2022/05/20 02:34:02;;;;;;;49.78;32.45;;;;;;;18.99;56.75;102221.06;4947311;28;20035;-66
2022/05/20 02:36:33;;;;;;;50.63;32.72;;;;;;;18.98;56.84;102211.25;4950503;28;20044;-67
2022/05/20 02:38:59;;;;;;;;;;;;;;;18.96;56.47;102209.81;4953284;28;20122;-68
2022/05/20 02:41:25;;;;;;;45.58;29.52;;;;;;;18.87;56.27;102212.13;4954691;28;20009;-66
2022/05/20 02:43:50;;;;;;;43.50;31.65;;;;;;;18.86;56.40;102210.50;4995111;28;20475;-65
2022/05/20 02:46:16;;;;;;;48.88;30.27;;;;;;;18.84;56.27;102203.63;4994546;28;20406;-65
2022/05/20 02:48:41;;;;;;;43.95;30.13;;;;;;;18.80;56.73;102208.75;4994335;28;20521;-66
2022/05/20 02:51:06;;;;;;;43.38;30.48;;;;;;;18.84;56.71;102215.34;4994593;28;20513;-66
2022/05/20 02:53:32;;;;;;;41.72;29.67;;;;;;;18.77;56.26;102211.16;4994227;28;20471;-65
2022/05/20 02:55:59;;;;;;;42.28;30.92;;;;;;;18.59;57.21;102208.63;4994248;28;20030;-66
2022/05/20 03:04:11;;;;;;;45.78;30.58;;;;;;;18.74;56.15;102212.44;4994390;28;20045;-66
2022/05/20 03:06:46;;;;;;;;;;;;;;;18.65;56.41;102213.94;4994956;28;20042;-65
2022/05/20 03:09:14;;;;;;;44.15;29.55;;;;;;;18.63;56.00;102216.09;4994035;28;19917;-66
2022/05/20 03:11:40;;;;;;;43.15;29.25;;;;;;;18.64;56.57;102216.88;4994127;28;20035;-65
2022/05/20 03:14:08;;;;;;;45.35;30.33;;;;;;;18.68;56.54;102218.88;4993910;28;20474;-67
2022/05/20 03:16:34;;;;;;;40.63;29.23;;;;;;;18.66;56.33;102214.75;4994295;28;20027;-65
2022/05/20 03:19:00;;;;;;;37.28;29.13;;;;;;;18.60;56.38;102216.56;4993727;28;20150;-66
2022/05/20 03:21:25;;;;;;;36.85;28.30;;;;;;;18.54;56.00;102208.53;4993877;28;20494;-66
2022/05/20 03:23:52;;;;;;;38.30;26.85;;;;;;;18.38;56.59;102210.94;4993669;28;20478;-66
2022/05/20 03:26:18;;;;;;;38.95;29.02;;;;;;;18.44;56.74;102213.81;4993748;28;20124;-66
2022/05/20 03:28:45;;;;;;;39.72;28.92;;;;;;;18.45;56.13;102220.88;4994210;28;20034;-65
2022/05/20 03:31:11;;;;;;;27.75;23.83;;;;;;;18.33;56.55;102223.63;4993442;28;20035;-66
2022/05/20 03:33:38;;;;;;;35.03;26.40;;;;;;;18.22;57.38;102230.75;4993700;28;20457;-66
2022/05/20 03:36:05;;;;;;;44.92;28.73;;;;;;;18.40;57.56;102221.56;5008560;28;20113;-66
2022/05/20 03:38:30;;;;;;;53.50;29.40;;;;;;;18.50;57.61;102218.25;4993129;28;20047;-66
2022/05/20 03:40:56;;;;;;;46.45;29.55;;;;;;;18.64;57.31;102219.59;4993746;28;20026;-66
2022/05/20 03:43:22;;;;;;;41.47;27.20;;;;;;;18.69;57.03;102211.53;4994174;28;20019;-65
2022/05/20 03:45:48;;;;;;;42.47;29.05;;;;;;;18.63;56.76;102207.91;4993302;28;20046;-66
2022/05/20 03:48:13;;;;;;;46.10;27.95;;;;;;;18.67;57.06;102219.13;4992913;28;20038;-66
2022/05/20 03:50:39;;;;;;;51.08;25.67;;;;;;;18.65;56.84;102205.78;4991936;28;20037;-67
2022/05/20 03:53:04;;;;;;;50.03;21.63;;;;;;;18.59;57.02;102197.75;4993269;28;20204;-67
2022/05/20 03:55:30;;;;;;;39.10;22.08;;;;;;;18.67;57.11;102208.25;4993590;28;20423;-66
2022/05/20 03:57:55;;;;;;;55.03;21.70;;;;;;;18.59;56.88;102227.69;4992955;28;20042;-66
2022/05/20 04:00:21;;;;;;;39.50;22.48;;;;;;;18.56;57.30;102234.44;4993185;28;20041;-66
2022/05/20 04:02:47;;;;;;;35.17;24.13;;;;;;;18.66;56.75;102240.09;4990725;28;20557;-66
2022/05/20 04:05:12;;;;;;;34.65;25.30;;;;;;;18.69;56.47;102246.94;4992970;28;20038;-66
2022/05/20 04:07:41;;;;;;;38.42;25.23;;;;;;;18.82;56.54;102247.47;4991878;28;20477;-67
2022/05/20 04:10:08;;;;;;;31.95;23.38;;;;;;;18.79;56.69;102249.84;4992747;28;20039;-66
2022/05/20 04:12:37;;;;;;;31.33;18.35;;;;;;;18.63;56.65;102259.66;4992706;28;20050;-67
2022/05/20 04:15:05;;;;;;;31.70;15.55;;;;;;;18.51;56.41;102258.03;4992621;28;20070;-67
2022/05/20 04:17:31;;;;;;;25.05;15.43;;;;;;;18.46;56.16;102264.19;4992787;28;20088;-66
2022/05/20 04:19:57;;;;;;;36.88;14.50;;;;;;;18.33;56.87;102257.13;4992095;28;20125;-68
2022/05/20 04:22:36;;;;;;;17.58;13.98;;;;;;;18.34;56.65;102269.66;4992866;28;20137;-66
2022/05/20 04:25:02;;;;;;;21.38;13.82;;;;;;;18.24;56.61;102272.16;4992680;28;20057;-66
2022/05/20 04:27:28;;;;;;;16.90;12.20;;;;;;;18.21;56.88;102271.81;4992316;28;20505;-67
2022/05/20 04:29:54;;;;;;;26.65;12.98;;;;;;;18.09;56.86;102276.47;4992497;28;20032;-66
2022/05/20 04:32:19;;;;;;;17.17;11.38;;;;;;;18.05;57.24;102269.84;4992462;28;20117;-66
2022/05/20 04:34:45;;;;;;;15.18;11.65;;;;;;;17.96;57.73;102263.97;4992958;28;20130;-66
2022/05/20 04:37:11;;;;;;;14.55;11.27;;;;;;;18.02;56.96;102265.72;4992570;28;20096;-68
2022/05/20 04:39:37;;;;;;;15.73;11.43;;;;;;;18.08;57.05;102263.94;4992135;28;20202;-66
2022/05/20 04:47:35;;;;;;;32.65;11.27;;;;;;;18.49;56.20;102262.91;4969831;28;20035;-67
2022/05/20 04:50:05;;;;;;;13.55;11.48;;;;;;;18.11;56.77;102250.69;4969859;28;20043;-66
2022/05/20 04:52:30;;;;;;;25.60;11.77;;;;;;;18.14;57.47;102254.81;4970350;28;20074;-65
2022/05/20 04:54:56;;;;;;;22.02;11.90;;;;;;;18.19;57.07;102257.63;4969572;28;20038;-66
2022/05/20 04:57:49;;;;;;;30.50;12.75;;;;;;;18.41;56.24;102247.75;4970123;28;20262;-66
2022/05/20 05:00:24;;;;;;;18.23;13.60;;;;;;;18.46;56.29;102260.63;4968831;28;20142;-66
2022/05/20 05:02:51;;;;;;;29.50;12.68;;;;;;;18.54;56.06;102261.09;4969729;28;20031;-65
2022/05/20 05:05:19;;;;;;;19.17;13.43;;;;;;;18.51;56.35;102264.31;4969683;28;20462;-66
2022/05/20 05:07:49;;;;;;;17.10;12.20;;;;;;;18.62;56.32;102260.69;4969894;28;20046;-66
2022/05/20 05:10:18;;;;;;;27.50;13.00;;;;;;;18.68;56.36;102257.00;4969669;28;20097;-66
2022/05/20 05:12:43;;;;;;;18.48;13.07;;;;;;;18.51;56.72;102253.44;4950376;29;20046;-65
2022/05/20 05:15:11;;;;;;;14.70;12.25;;;;;;;18.73;56.04;102251.63;4951937;28;20043;-66
2022/05/20 05:20:22;;;;;;;16.65;12.60;;;;;;;18.48;57.00;102248.44;4965406;28;20050;-69
2022/05/20 05:22:52;;;;;;;15.93;13.05;;;;;;;18.59;57.20;102239.41;4947227;28;20126;-66
2022/05/20 05:25:20;;;;;;;19.27;13.48;;;;;;;18.89;55.82;102244.56;4959594;28;20037;-69
2022/05/20 05:27:46;;;;;;;17.38;14.85;;;;;;;18.94;56.09;102236.50;4972688;28;20046;-67
2022/05/20 05:30:12;;;;;;;18.60;15.18;;;;;;;19.06;55.88;102239.97;4972909;28;20390;-67
2022/05/20 05:32:39;;;;;;;21.60;14.02;;;;;;;18.80;56.22;102240.59;4983362;28;20041;-68
2022/05/20 05:35:07;;;;;;;15.60;14.00;;;;;;;19.03;56.13;102235.00;4979055;28;20084;-68
2022/05/20 05:37:34;;;;;;;16.35;14.45;;;;;;;18.97;56.11;102239.53;4981893;28;20038;-67
2022/05/20 05:40:02;;;;;;;20.83;14.02;;;;;;;19.11;56.28;102246.31;4990218;28;20042;-68
2022/05/20 05:42:29;;;;;;;21.40;15.23;;;;;;;19.13;56.09;102252.34;4991590;28;20042;-67
2022/05/20 05:44:55;;;;;;;16.10;14.50;;;;;;;19.36;55.75;102247.84;4991416;28;20042;-68
2022/05/20 05:47:21;;;;;;;18.27;15.93;;;;;;;19.14;56.11;102245.00;4990127;28;20374;-67
2022/05/20 05:49:46;;;;;;;18.90;16.90;;;;;;;19.51;56.33;102248.91;4991881;28;20057;-67
2022/05/20 05:52:12;;;;;;;18.95;16.52;;;;;;;19.68;55.69;102246.13;4990647;28;20038;-69
2022/05/20 05:54:37;;;;;;;19.65;16.98;;;;;;;19.53;56.18;102248.66;4985093;28;20050;-67
2022/05/20 05:57:03;;;;;;;18.63;16.63;;;;;;;19.47;56.13;102250.47;4985257;28;20069;-67
2022/05/20 05:59:31;;;;;;;21.00;17.90;;;;;;;19.43;56.91;102252.06;4986676;28;20446;-67
2022/05/20 06:02:03;;;;;;;19.42;17.42;;;;;;;19.55;56.65;102255.50;4987696;28;20030;-69
2022/05/20 06:04:29;;;;;;;23.38;17.70;;;;;;;19.82;55.95;102259.16;4990952;28;20026;-68
2022/05/20 06:06:54;;;;;;;18.83;16.80;;;;;;;19.59;56.67;102255.81;4990367;28;20437;-67
2022/05/20 06:09:21;;;;;;;19.40;16.63;;;;;;;19.52;56.89;102250.53;4990485;28;20092;-66
2022/05/20 06:11:47;;;;;;;22.77;15.95;;;;;;;19.92;56.09;102251.13;4992734;28;20026;-67
2022/05/20 06:14:12;;;;;;;18.85;16.90;;;;;;;20.39;55.35;102254.19;4994467;28;20069;-70
2022/05/20 06:16:39;;;;;;;21.52;17.45;;;;;;;20.63;54.87;102257.44;4992106;28;20030;-68
2022/05/20 06:19:04;;;;;;;22.60;18.30;;;;;;;20.26;56.21;102261.94;4993958;28;20045;-68
2022/05/20 06:21:30;;;;;;;18.98;16.98;;;;;;;20.44;55.82;102259.69;4992591;28;20038;-68
2022/05/20 06:23:55;;;;;;;20.23;15.88;;;;;;;19.62;57.41;102263.50;4993835;28;20034;-67
2022/05/20 06:26:21;;;;;;;18.33;16.45;;;;;;;20.21;56.57;102257.25;4994755;28;20042;-68
2022/05/20 06:28:47;;;;;;;24.60;17.98;;;;;;;21.36;53.70;102260.34;4995220;28;20054;-68
2022/05/20 06:31:13;;;;;;;22.95;16.33;;;;;;;21.45;53.52;102260.66;4983417;28;20046;-69
2022/05/20 06:33:38;;;;;;;18.77;16.45;;;;;;;21.30;53.71;102258.66;4975022;28;20414;-67
2022/05/20 06:41:33;;;;;;;16.98;15.15;;;;;;;21.89;52.31;102258.50;4975057;28;20521;-68
2022/05/20 06:43:58;;;;;;;21.63;15.35;;;;;;;22.09;51.84;102250.38;4975338;28;20054;-68
2022/05/20 06:46:24;;;;;;;17.15;14.95;;;;;;;21.97;51.80;102242.41;4976119;28;20085;-69
2022/05/20 06:48:54;;;;;;;19.92;13.90;;;;;;;21.83;52.05;102233.03;4975650;28;20031;-68
2022/05/20 06:51:31;;;;;;;17.38;13.80;;;;;;;21.83;52.62;102227.56;4975182;28;20043;-69
2022/05/20 06:53:59;;;;;;;16.17;13.73;;;;;;;21.87;52.29;102236.88;4974579;28;20035;-68
2022/05/20 06:56:28;;;;;;;19.80;13.48;;;;;;;21.90;52.10;102233.59;4979790;28;20045;-68
2022/05/20 06:58:54;;;;;;;15.50;13.32;;;;;;;22.23;51.28;102229.63;4974891;28;20483;-70
2022/05/20 07:01:19;;;;;;;17.55;14.35;;;;;;;22.41;51.38;102234.59;4975140;28;20030;-69
2022/05/20 07:03:45;;;;;;;21.88;13.40;;;;;;;22.63;50.91;102219.63;4974705;28;20126;-70
2022/05/20 07:06:13;;;;;;;22.58;13.13;;;;;;;22.78;50.30;102224.28;4974617;28;20031;-70
2022/05/20 07:08:38;;;;;;;18.05;12.25;;;;;;;22.04;51.89;102225.72;4991667;28;20022;-69
2022/05/20 07:11:05;;;;;;;18.17;12.77;;;;;;;22.65;50.82;102222.91;4994036;28;20034;-69
2022/05/20 07:13:31;;;;;;;13.45;10.27;;;;;;;22.42;50.46;102208.88;4994196;28;20034;-69
2022/05/20 07:15:57;;;;;;;14.88;9.85;;;;;;;22.54;50.40;102203.97;4993485;28;20072;-68
2022/05/20 07:18:27;;;;;;;18.10;9.85;;;;;;;22.61;48.92;102208.09;4993647;28;20035;-67
2022/05/20 07:20:52;;;;;;;19.90;10.33;;;;;;;22.85;49.16;102210.31;4993882;28;20038;-69
2022/05/20 07:23:18;;;;;;;15.77;10.85;;;;;;;23.18;48.58;102199.63;4992551;28;20033;-68
2022/05/20 07:25:44;;;;;;;16.67;11.23;;;;;;;23.22;49.24;102195.22;4994089;28;20045;-70
2022/05/20 07:28:09;;;;;;;14.60;10.43;;;;;;;23.32;47.57;102195.25;4993375;28;20042;-70
2022/05/20 07:30:35;;;;;;;13.68;9.73;;;;;;;23.47;47.57;102184.22;4993142;28;20363;-69
2022/05/20 07:33:01;;;;;;;13.57;9.50;;;;;;;23.93;46.30;102182.16;4993522;28;20041;-69
2022/05/20 07:35:27;;;;;;;12.23;9.32;;;;;;;23.76;46.22;102176.19;4993441;28;20027;-69
2022/05/20 07:37:53;;;;;;;15.15;9.73;;;;;;;23.59;46.67;102161.94;4993379;28;20487;-69
2022/05/20 07:40:19;;;;;;;13.30;9.60;;;;;;;23.55;46.50;102163.59;4993582;28;20037;-67
2022/05/20 07:42:46;;;;;;;13.82;10.90;;;;;;;23.86;46.43;102154.16;4993237;28;20042;-68
2022/05/20 07:45:13;;;;;;;12.60;9.82;;;;;;;24.14;46.26;102152.66;4993164;28;20038;-68
2022/05/20 07:47:38;;;;;;;13.20;9.57;;;;;;;24.19;45.91;102152.66;5008189;28;20035;-66
2022/05/20 07:50:05;;;;;;;13.05;9.90;;;;;;;24.14;45.09;102137.00;5000442;28;20422;-68
2022/05/20 07:55:20;;;;;;;13.13;9.85;;;;;;;24.52;44.55;102127.13;4974183;28;20049;-67
2022/05/20 07:57:46;;;;;;;13.25;9.27;;;;;;;24.50;44.87;102131.25;4973585;28;20430;-69
2022/05/20 08:00:14;;;;;;;12.93;9.95;;;;;;;23.88;46.20;102129.19;4974003;28;20127;-68
2022/05/20 08:02:42;;;;;;;15.88;10.05;;;;;;;23.95;45.04;102130.50;4973633;28;20058;-67
2022/05/20 08:05:08;;;;;;;9.43;8.32;;;;;;;24.36;44.58;102133.84;4988873;28;20034;-69
2022/05/20 08:07:39;;;;;;;14.05;9.82;;;;;;;24.58;44.02;102125.16;4993554;28;20337;-70
2022/05/20 08:10:21;;;;;;;13.13;9.05;;;;;;;23.81;44.64;102117.66;4992370;28;20043;-69
2022/05/20 08:12:46;;;;;;;13.73;9.55;;;;;;;23.94;44.67;102120.59;4992325;28;20062;-68
2022/05/20 08:15:14;;;;;;;14.27;9.55;;;;;;;24.45;44.83;102114.81;4992499;28;20042;-68
2022/05/20 08:17:43;;;;;;;10.80;9.27;;;;;;;24.74;43.80;102112.94;4992573;28;20061;-69
2022/05/20 08:20:22;;;;;;;15.05;9.25;;;;;;;24.82;42.37;102106.84;4992325;28;20054;-67
2022/05/20 08:22:48;;;;;;;16.30;9.70;;;;;;;24.47;42.48;102110.66;4992795;28;20119;-69
2022/05/20 08:25:14;;;;;;;12.20;9.48;;;;;;;23.87;43.06;102109.13;4992386;28;20038;-70
2022/05/20 08:27:39;;;;;;;18.85;9.35;;;;;;;24.25;43.07;102105.59;4992382;28;20034;-68
2022/05/20 08:30:11;;;;;;;12.60;9.13;;;;;;;24.65;43.85;102103.66;4992074;28;20034;-69
2022/05/20 08:32:36;;;;;;;13.88;9.63;;;;;;;24.94;43.20;102104.50;4992226;28;20042;-68
2022/05/20 08:35:03;;;;;;;15.02;10.75;;;;;;;24.80;42.66;102111.81;4991654;28;20042;-68
2022/05/20 08:37:30;;;;;;;11.90;8.63;;;;;;;24.36;42.75;102098.13;4992776;28;20046;-69
2022/05/20 08:39:55;;;;;;;10.73;8.38;;;;;;;24.92;41.99;102104.00;4991632;28;20038;-68
2022/05/20 08:42:27;;;;;;;13.55;9.55;;;;;;;25.08;41.44;102089.75;4992124;28;20042;-69
2022/05/20 08:44:52;;;;;;;15.50;9.45;;;;;;;25.38;41.10;102087.78;4991828;28;20065;-69
2022/05/20 08:47:31;;;;;;;15.27;9.65;;;;;;;25.40;42.16;102094.66;4991762;28;20033;-70
2022/05/20 08:50:00;;;;;;;14.93;9.90;;;;;;;25.04;40.98;102091.47;4991713;28;20092;-69
2022/05/20 08:52:27;;;;;;;9.95;8.93;;;;;;;25.56;41.16;102081.53;4992404;28;20031;-70
2022/05/20 08:54:52;;;;;;;16.50;9.95;;;;;;;25.31;42.02;102081.81;4991536;28;20034;-70
2022/05/20 08:57:30;;;;;;;12.98;9.43;;;;;;;25.78;42.23;102077.09;4990943;28;20030;-70
2022/05/20 08:59:56;;;;;;;13.75;10.02;;;;;;;25.51;41.88;102067.84;4991004;28;20035;-69
2022/05/20 09:02:22;;;;;;;13.13;10.50;;;;;;;25.73;41.79;102059.84;4990521;28;20057;-70
2022/05/20 09:04:49;;;;;;;15.02;10.50;;;;;;;26.03;41.40;102046.41;4988766;28;20219;-68
2022/05/20 09:07:16;;;;;;;16.10;9.45;;;;;;;25.88;41.07;102048.59;4991030;28;20085;-68
2022/05/20 09:09:54;;;;;;;17.42;10.60;;;;;;;26.25;41.67;102045.00;4989564;28;20044;-69
2022/05/20 09:12:33;;;;;;;13.02;9.95;;;;;;;26.37;39.99;102039.84;4990825;28;20061;-70
2022/05/20 09:17:47;;;;;;;14.45;8.90;;;;;;;26.24;39.75;102032.34;4990522;28;20535;-69
2022/05/20 09:20:17;;;;;;;10.40;8.68;;;;;;;26.23;39.45;102022.44;4990913;28;20045;-70
2022/05/20 09:22:54;;;;;;;15.27;9.35;;;;;;;26.55;39.05;102009.47;4989919;28;20024;-68
2022/05/20 09:25:23;;;;;;;11.10;8.40;;;;;;;26.97;38.97;102002.06;4990963;28;20624;-70
2022/05/20 09:27:51;;;;;;;13.80;8.75;;;;;;;26.38;37.85;101995.41;4990513;28;20046;-70
2022/05/20 09:30:23;;;;;;;11.40;8.43;;;;;;;26.31;39.17;101986.75;4990831;28;20565;-69
2022/05/20 09:33:11;;;;;;;13.63;8.82;;;;;;;26.78;37.97;101978.16;4990335;28;20026;-71
2022/05/20 09:35:37;;;;;;;13.77;8.20;;;;;;;26.27;38.02;101973.84;4990841;28;20046;-70
2022/05/20 09:38:25;;;;;;;9.60;8.25;;;;;;;26.29;38.46;101964.16;4990156;28;20494;-70
2022/05/20 09:40:51;;;;;;;14.48;8.05;;;;;;;26.59;38.48;101946.25;4990664;28;20035;-70
2022/05/20 09:43:35;;;;;;;11.00;7.95;;;;;;;26.59;38.01;101944.31;4990784;28;20466;-68
2022/05/20 09:46:01;;;;;;;14.00;8.05;;;;;;;27.03;37.80;101951.19;4989334;28;20420;-70
2022/05/20 09:49:05;;;;;;;7.53;6.55;;;;;;;27.32;36.69;101940.59;4990464;28;20114;-70
2022/05/20 09:51:37;;;;;;;11.00;8.27;;;;;;;27.04;37.25;101939.00;4974354;28;20079;-69
2022/05/20 09:54:32;;;;;;;15.38;8.82;;;;;;;26.77;37.27;101931.56;4967940;28;20514;-70
2022/05/20 09:56:57;;;;;;;13.95;7.45;;;;;;;27.03;36.69;101926.34;4968112;28;20046;-70
2022/05/20 09:59:54;;;;;;;10.07;7.55;;;;;;;27.15;37.44;101918.31;4968250;28;20118;-69
2022/05/20 10:02:28;;;;;;;13.52;7.47;;;;;;;27.11;37.30;101911.78;4968007;28;20439;-70
2022/05/20 10:05:00;;;;;;;10.38;6.90;;;;;;;26.28;36.38;101904.63;4969420;28;20031;-69
2022/05/20 10:07:38;;;;;;;11.90;7.38;;;;;;;25.99;37.34;101906.81;4968742;28;20055;-69
2022/05/20 10:10:11;;;;;;;15.80;8.15;;;;;;;26.56;37.60;101908.22;4968075;28;20063;-70
2022/05/20 10:12:38;;;;;;;9.63;7.05;;;;;;;27.10;37.16;101919.28;4968879;28;20231;-69
2022/05/20 10:15:17;;;;;;;14.15;8.20;;;;;;;26.65;37.17;101922.97;4968222;28;20430;-69
2022/05/20 10:18:12;;;;;;;17.38;8.40;;;;;;;26.95;37.13;101925.09;4968873;28;20051;-68
2022/05/20 10:21:05;;;;;;;12.40;7.38;;;;;;;27.25;36.38;101918.09;4968710;28;20070;-69
2022/05/20 10:23:49;;;;;;;9.20;5.53;;;;;;;27.10;35.70;101904.66;4968279;28;20043;-69
2022/05/20 10:26:21;;;;;;;10.00;6.43;;;;;;;28.06;36.14;101892.94;4968612;28;20070;-68
2022/05/20 10:34:40;;;;;;;9.88;7.43;;;;;;;27.40;37.39;101890.19;4971949;28;20391;-69
2022/05/20 10:37:11;;;;;;;10.80;7.68;;;;;;;27.97;35.80;101869.97;4971304;28;20043;-71
2022/05/20 10:39:58;;;;;;;9.98;7.78;;;;;;;27.30;36.94;101865.56;4970538;28;20081;-69
2022/05/20 10:42:58;;;;;;;18.40;8.70;;;;;;;27.83;35.46;101875.53;4971254;28;20130;-71
2022/05/20 10:48:34;;;;;;;11.30;6.28;;;;;;;27.91;33.84;101843.56;4971284;28;20014;-68
2022/05/20 10:51:04;;;;;;;12.10;5.78;;;;;;;28.03;33.22;101830.00;4970443;28;20121;-69
2022/05/20 10:53:50;;;;;;;5.97;4.93;;;;;;;28.60;32.35;101831.69;4971137;28;20062;-70
2022/05/20 10:56:32;;;;;;;11.95;5.20;;;;;;;28.90;31.56;101813.34;4973051;28;20038;-69
2022/05/20 10:59:24;;;;;;;8.60;4.82;;;;;;;28.36;30.79;101805.59;4993008;28;20037;-70
2022/05/20 11:02:05;;;;;;;9.15;4.57;;;;;;;28.11;31.79;101803.56;4993994;28;20578;-69
2022/05/20 11:04:52;;;;;;;9.93;5.32;;;;;;;28.28;32.42;101782.31;4993891;28;20038;-70
2022/05/20 11:07:39;;;;;;;8.02;5.40;;;;;;;27.69;31.60;101777.31;4994372;28;20061;-68
2022/05/20 11:10:13;;;;;;;10.57;6.35;;;;;;;27.89;32.54;101760.19;4993611;28;20126;-70
2022/05/20 11:12:48;;;;;;;9.68;6.18;;;;;;;28.05;32.62;101746.78;4993273;28;20065;-72
2022/05/20 11:15:19;;;;;;;12.20;7.05;;;;;;;27.75;32.47;101724.34;4993195;28;20053;-69
2022/05/20 11:18:00;;;;;;;13.00;7.53;;;;;;;27.79;32.81;101727.31;4993337;28;20039;-70
2022/05/20 11:20:40;;;;;;;10.20;6.40;;;;;;;28.80;32.75;101708.50;4993881;28;20066;-70
2022/05/20 11:23:12;;;;;;;;;;;;;;;28.82;32.09;101703.47;4993808;28;20104;-72
2022/05/20 11:26:11;;;;;;;7.60;6.22;;;;;;;28.65;30.12;101695.19;4994071;28;19916;-71
2022/05/20 11:28:55;;;;;;;8.88;5.38;;;;;;;28.18;31.08;101693.31;4992787;28;20091;-70
2022/05/20 11:31:51;;;;;;;7.30;4.97;;;;;;;27.98;31.56;101682.84;4993435;28;20502;-70
2022/05/20 11:34:38;;;;;;;7.53;5.03;;;;;;;28.57;30.73;101685.75;4993111;28;20042;-72
2022/05/20 11:37:20;;;;;;;11.82;5.68;;;;;;;27.92;30.07;101673.06;4993477;28;20161;-70
2022/05/20 11:40:16;;;;;;;7.38;4.28;;;;;;;28.61;30.56;101672.91;4992603;28;20035;-70
2022/05/20 11:43:02;;;;;;;8.80;6.15;;;;;;;28.41;30.78;101664.38;4992753;28;20049;-72
2022/05/20 11:46:05;;;;;;;8.38;5.03;;;;;;;28.86;30.10;101651.84;4993258;28;20411;-70
2022/05/20 11:49:11;;;;;;;11.32;5.95;;;;;;;27.83;32.02;101636.31;4992705;28;20056;-69
2022/05/20 11:52:01;;;;;;;10.95;5.25;;;;;;;28.63;30.50;101633.84;4993095;28;20185;-71
2022/05/20 11:54:27;;;;;;;10.70;5.50;;;;;;;28.50;30.96;101624.53;4992956;28;20042;-71
2022/05/20 11:57:03;;;;;;;6.95;5.05;;;;;;;28.68;30.61;101610.72;4992102;28;20045;-69
2022/05/20 11:59:46;;;;;;;7.53;4.65;;;;;;;28.52;30.14;101607.63;4992882;28;20030;-71
2022/05/20 12:02:14;;;;;;;6.03;4.93;;;;;;;28.80;29.45;101602.53;4992732;28;20054;-70
2022/05/20 12:04:41;;;;;;;11.80;6.03;;;;;;;28.39;30.58;101594.75;4982315;28;20030;-70
2022/05/20 12:07:12;;;;;;;7.50;5.20;;;;;;;28.50;30.68;101573.94;4984638;28;20042;-71